Mount Vernon, Texas
Current Conditions -  °F | °C
As of 7:55 AM on Monday 20 Oct 2014 (Local Time) from KOSA Reporting Station
Clear Clear  
Wind Chill: 47°   Ceiling: Unl
Heat Index: 47°   Visibility: 3mi
Dew Point: 47°   Wind: 0mph
Humidity: 98%   Direction: NA
Pressure: 30.12"   Gusts: NA
Location:  33.19°N, 95.22°W
Report Text: KOSA 201255Z AUTO 00000KT 3SM CLR 09/08 A3012 RMK AO1 T00850082
Loading
Personal Weather Stations






























Interactive Weather Map
Tropical Storm Tracking
New forecast layout! Learn more

10-Day Weather Forecast

Advertisements
Track Severe Weather on mobile